Time;durP1;ratioP1;P1;durP2;ratioP2;P2;SDS_P1;SDS_P2;PMS_P1;PMS_P2;Temp;Humidity;BMP_temperature;BMP_pressure;BME280_temperature;BME280_humidity;BME280_pressure;Samples;Min_cycle;Max_cycle;Signal;HPM_P1;HPM_P2
2024/03/06 00:02:18;;;;;;;;;;;9.40;83.00;;;;;;5018002;28;86836;-43
2024/03/06 00:04:44;;;;;;;;;;;9.30;83.00;;;;;;4993216;28;86924;-43
2024/03/06 00:07:10;;;;;;;;;;;9.40;83.20;;;;;;4999673;28;88617;-42
2024/03/06 00:09:36;;;;;;;;;;;9.30;83.20;;;;;;5006616;28;87007;-43
2024/03/06 00:12:02;;;;;;;;;;;9.30;83.10;;;;;;5002011;28;87843;-42
2024/03/06 00:14:27;;;;;;;;;;;9.30;83.20;;;;;;5004871;28;87543;-42
2024/03/06 00:16:55;;;;;;;;;;;9.30;83.10;;;;;;5003241;28;87428;-42
2024/03/06 00:19:21;;;;;;;;;;;9.30;83.20;;;;;;5003564;28;88321;-42
2024/03/06 00:21:46;;;;;;;;;;;9.30;83.80;;;;;;5008521;28;87005;-43
2024/03/06 00:24:12;;;;;;;;;;;9.20;83.20;;;;;;5007282;28;87101;-42
2024/03/06 00:26:41;;;;;;;;;;;9.30;83.20;;;;;;4993654;28;87766;-44
2024/03/06 00:29:07;;;;;;;;;;;9.20;83.10;;;;;;5002826;28;86994;-42
2024/03/06 00:31:32;;;;;;;;;;;9.20;83.10;;;;;;5008377;28;89601;-43
2024/03/06 00:33:58;;;;;;;;;;;9.20;83.10;;;;;;5011648;28;87361;-42
2024/03/06 00:36:23;;;;;;;;;;;9.20;83.20;;;;;;4995127;28;87039;-42
2024/03/06 00:38:49;;;;;;;;;;;9.20;83.20;;;;;;5004344;28;86987;-42
2024/03/06 00:41:15;;;;;;;;;;;9.10;83.10;;;;;;5010496;28;87714;-43
2024/03/06 00:43:40;;;;;;;;;;;9.10;83.20;;;;;;5012491;28;86971;-43
2024/03/06 00:46:06;;;;;;;;;;;9.10;83.20;;;;;;5008825;28;87327;-42
2024/03/06 00:48:31;;;;;;;;;;;9.10;83.10;;;;;;4996617;28;86579;-42
2024/03/06 00:50:57;;;;;;;;;;;9.10;83.10;;;;;;5000545;28;87519;-42
2024/03/06 00:53:22;;;;;;;;;;;9.10;83.10;;;;;;5009498;28;90788;-43
2024/03/06 00:55:48;;;;;;;;;;;9.10;83.10;;;;;;5013830;28;88071;-42
2024/03/06 00:58:13;;;;;;;;;;;9.10;83.20;;;;;;5002926;28;87701;-42
2024/03/06 01:00:39;;;;;;;;;;;9.10;83.20;;;;;;4998932;28;87098;-42
2024/03/06 01:03:05;;;;;;;;;;;9.10;83.20;;;;;;5009227;28;87271;-42
2024/03/06 01:05:31;;;;;;;;;;;9.10;83.00;;;;;;5011046;28;88646;-42
2024/03/06 01:07:56;;;;;;;;;;;9.00;83.10;;;;;;5007691;28;86891;-42
2024/03/06 01:10:22;;;;;;;;;;;9.00;83.10;;;;;;4996013;28;87212;-43
2024/03/06 01:12:48;;;;;;;;;;;9.00;83.10;;;;;;5003084;28;87432;-42
2024/03/06 01:15:14;;;;;;;;;;;9.00;83.30;;;;;;5007985;28;87072;-43
2024/03/06 01:17:39;;;;;;;;;;;9.00;83.10;;;;;;5014212;28;87711;-42
2024/03/06 01:20:08;;;;;;;;;;;9.00;83.10;;;;;;4998549;28;88480;-42
2024/03/06 01:22:34;;;;;;;;;;;9.00;83.10;;;;;;4999947;28;88767;-42
2024/03/06 01:25:00;;;;;;;;;;;9.00;83.00;;;;;;5003269;28;88969;-42
2024/03/06 01:27:26;;;;;;;;;;;8.90;83.10;;;;;;5016853;28;87880;-42
2024/03/06 01:29:51;;;;;;;;;;;9.00;83.10;;;;;;5002473;28;89450;-43
2024/03/06 01:32:17;;;;;;;;;;;8.90;82.90;;;;;;4995129;28;87620;-43
2024/03/06 01:34:43;;;;;;;;;;;8.90;83.00;;;;;;5004529;28;86870;-43
2024/03/06 01:37:08;;;;;;;;;;;8.90;83.10;;;;;;5013275;28;86717;-43
2024/03/06 01:39:35;;;;;;;;;;;8.90;83.10;;;;;;5008644;28;87408;-42
2024/03/06 01:42:01;;;;;;;;;;;8.90;83.10;;;;;;4996677;28;87414;-43
2024/03/06 01:44:27;;;;;;;;;;;8.80;83.00;;;;;;4999503;28;88540;-42
2024/03/06 01:46:54;;;;;;;;;;;8.80;82.90;;;;;;5008606;28;87068;-43
2024/03/06 01:49:20;;;;;;;;;;;8.80;83.00;;;;;;5011854;28;87709;-42
2024/03/06 01:51:48;;;;;;;;;;;8.80;83.00;;;;;;5001780;28;88493;-42
2024/03/06 01:54:14;;;;;;;;;;;8.80;83.00;;;;;;4999608;28;87026;-42
2024/03/06 01:56:44;;;;;;;;;;;8.80;82.80;;;;;;5004587;28;87711;-42
2024/03/06 01:59:10;;;;;;;;;;;8.80;83.60;;;;;;5014464;28;87639;-42
2024/03/06 02:01:36;;;;;;;;;;;8.70;83.00;;;;;;5012797;28;86199;-42
2024/03/06 02:04:02;;;;;;;;;;;8.70;83.20;;;;;;5007282;28;86990;-42
2024/03/06 02:06:28;;;;;;;;;;;8.70;83.00;;;;;;5008192;28;86833;-42
2024/03/06 02:08:53;;;;;;;;;;;8.70;83.00;;;;;;5004285;28;88321;-42
2024/03/06 02:11:19;;;;;;;;;;;8.70;83.10;;;;;;5010576;28;88397;-43
2024/03/06 02:13:44;;;;;;;;;;;8.70;83.20;;;;;;4994817;28;87507;-42
2024/03/06 02:16:10;;;;;;;;;;;8.70;83.00;;;;;;5006067;28;87271;-42
2024/03/06 02:18:36;;;;;;;;;;;8.70;83.00;;;;;;5012299;28;87551;-42
2024/03/06 02:21:02;;;;;;;;;;;8.60;83.10;;;;;;5011513;28;86994;-42
2024/03/06 02:23:28;;;;;;;;;;;8.70;83.10;;;;;;5003584;28;87656;-43
2024/03/06 02:25:53;;;;;;;;;;;8.60;83.00;;;;;;5009620;28;87352;-42
2024/03/06 02:28:19;;;;;;;;;;;8.60;83.20;;;;;;5004909;28;86953;-42
2024/03/06 02:30:44;;;;;;;;;;;8.60;83.30;;;;;;5011882;28;88324;-42
2024/03/06 02:33:10;;;;;;;;;;;8.60;83.20;;;;;;4998623;27;89443;-42
2024/03/06 02:35:36;;;;;;;;;;;8.50;83.20;;;;;;4999955;28;86990;-42
2024/03/06 02:38:04;;;;;;;;;;;8.50;83.30;;;;;;5002357;28;87407;-42
2024/03/06 02:40:32;;;;;;;;;;;8.50;83.30;;;;;;5009788;28;87273;-42
2024/03/06 02:42:58;;;;;;;;;;;8.50;83.30;;;;;;5015461;28;87192;-42
2024/03/06 02:45:23;;;;;;;;;;;8.50;83.10;;;;;;5008471;28;88716;-42
2024/03/06 02:47:49;;;;;;;;;;;8.50;83.20;;;;;;5004322;28;87163;-42
2024/03/06 02:50:15;;;;;;;;;;;8.50;83.20;;;;;;5008061;28;87359;-42
2024/03/06 02:52:40;;;;;;;;;;;8.50;83.00;;;;;;5012375;28;86894;-42
2024/03/06 02:55:06;;;;;;;;;;;8.50;83.10;;;;;;5002096;28;86877;-42
2024/03/06 02:57:32;;;;;;;;;;;8.50;83.10;;;;;;5001213;28;89607;-42
2024/03/06 02:59:58;;;;;;;;;;;8.40;83.20;;;;;;5000071;28;87016;-42
2024/03/06 03:02:23;;;;;;;;;;;8.40;83.10;;;;;;5008987;28;87231;-42
2024/03/06 03:04:52;;;;;;;;;;;8.50;83.10;;;;;;5018633;28;87395;-42
2024/03/06 03:07:19;;;;;;;;;;;8.40;83.00;;;;;;5001154;28;87041;-42
2024/03/06 03:09:45;;;;;;;;;;;8.40;83.10;;;;;;4999062;28;88743;-43
2024/03/06 03:12:11;;;;;;;;;;;8.40;83.10;;;;;;5009212;28;86986;-42
2024/03/06 03:14:37;;;;;;;;;;;8.40;83.20;;;;;;5014094;28;86771;-42
2024/03/06 03:17:03;;;;;;;;;;;8.40;83.20;;;;;;5004272;28;88633;-43
2024/03/06 03:19:29;;;;;;;;;;;8.40;83.30;;;;;;5000461;28;86959;-42
2024/03/06 03:21:54;;;;;;;;;;;8.40;83.10;;;;;;5007126;28;88383;-42
2024/03/06 03:24:21;;;;;;;;;;;8.30;83.10;;;;;;5007553;28;88603;-42
2024/03/06 03:26:47;;;;;;;;;;;8.30;83.10;;;;;;5012850;28;87067;-42
2024/03/06 03:29:12;;;;;;;;;;;8.30;83.10;;;;;;5001792;28;86947;-42
2024/03/06 03:31:38;;;;;;;;;;;8.30;82.90;;;;;;5003370;28;86976;-42
2024/03/06 03:34:05;;;;;;;;;;;8.30;83.00;;;;;;5004804;28;86982;-42
2024/03/06 03:36:31;;;;;;;;;;;8.30;83.10;;;;;;5015659;28;88435;-42
2024/03/06 03:38:56;;;;;;;;;;;8.30;83.00;;;;;;4998754;28;86318;-42
2024/03/06 03:41:22;;;;;;;;;;;8.30;82.90;;;;;;5001750;28;86955;-43
2024/03/06 03:43:49;;;;;;;;;;;8.30;83.00;;;;;;5006875;28;87617;-42
2024/03/06 03:46:14;;;;;;;;;;;8.30;82.90;;;;;;5011836;28;87982;-42
2024/03/06 03:48:40;;;;;;;;;;;8.30;82.90;;;;;;5012068;28;88134;-42
2024/03/06 03:51:06;;;;;;;;;;;8.20;82.90;;;;;;4994664;28;87615;-42
2024/03/06 03:53:32;;;;;;;;;;;8.20;82.80;;;;;;5007301;28;89568;-42
2024/03/06 03:55:58;;;;;;;;;;;8.20;83.00;;;;;;5009320;28;87661;-41
2024/03/06 03:58:24;;;;;;;;;;;8.20;83.00;;;;;;5015091;28;87052;-42
2024/03/06 04:00:52;;;;;;;;;;;8.20;83.10;;;;;;4993795;28;86977;-42
2024/03/06 04:03:21;;;;;;;;;;;8.20;82.90;;;;;;4997579;28;87926;-42
2024/03/06 04:05:48;;;;;;;;;;;8.20;82.80;;;;;;5001213;28;87086;-42
2024/03/06 04:08:13;;;;;;;;;;;8.10;82.90;;;;;;5010933;28;88034;-42
2024/03/06 04:10:39;;;;;;;;;;;8.10;82.90;;;;;;5000584;28;88771;-41
2024/03/06 04:13:04;;;;;;;;;;;8.20;82.80;;;;;;4997543;28;87047;-42
2024/03/06 04:15:30;;;;;;;;;;;8.10;82.80;;;;;;5004310;28;87944;-43
2024/03/06 04:17:56;;;;;;;;;;;8.10;82.80;;;;;;5011476;28;87169;-42
2024/03/06 04:20:22;;;;;;;;;;;8.10;82.70;;;;;;5016086;28;86851;-42
2024/03/06 04:22:50;;;;;;;;;;;8.10;82.60;;;;;;4999926;28;87400;-43
2024/03/06 04:25:15;;;;;;;;;;;8.20;82.80;;;;;;4999225;28;87724;-42
2024/03/06 04:27:41;;;;;;;;;;;8.10;82.60;;;;;;5006646;28;86857;-42
2024/03/06 04:30:07;;;;;;;;;;;8.10;82.70;;;;;;5016065;28;86902;-42
2024/03/06 04:32:33;;;;;;;;;;;8.10;82.60;;;;;;4998723;28;87580;-42
2024/03/06 04:34:58;;;;;;;;;;;8.10;82.80;;;;;;4999507;28;88771;-42
2024/03/06 04:37:26;;;;;;;;;;;8.10;82.70;;;;;;5003374;28;86958;-42
2024/03/06 04:39:52;;;;;;;;;;;8.10;82.70;;;;;;5010160;28;88014;-42
2024/03/06 04:42:17;;;;;;;;;;;8.00;82.70;;;;;;5010330;28;87439;-42
2024/03/06 04:44:45;;;;;;;;;;;8.00;82.70;;;;;;5000307;28;87414;-42
2024/03/06 04:47:11;;;;;;;;;;;8.00;82.60;;;;;;4999109;28;87008;-42
2024/03/06 04:49:36;;;;;;;;;;;8.00;82.80;;;;;;5003198;28;88799;-41
2024/03/06 04:52:02;;;;;;;;;;;8.00;82.70;;;;;;4999151;28;86345;-42
2024/03/06 04:54:28;;;;;;;;;;;8.00;82.60;;;;;;5003225;28;86981;-42
2024/03/06 04:56:54;;;;;;;;;;;8.00;82.60;;;;;;5004834;28;87758;-43
2024/03/06 04:59:20;;;;;;;;;;;7.90;82.70;;;;;;4999394;28;88244;-42
2024/03/06 05:01:45;;;;;;;;;;;8.00;82.60;;;;;;5002924;28;88703;-43
2024/03/06 05:04:11;;;;;;;;;;;8.00;82.60;;;;;;5005483;28;87183;-42
2024/03/06 05:06:37;;;;;;;;;;;8.00;82.50;;;;;;4994785;28;86900;-41
2024/03/06 05:09:03;;;;;;;;;;;8.00;82.40;;;;;;5001057;28;87347;-42
2024/03/06 05:11:29;;;;;;;;;;;8.00;82.40;;;;;;5003233;28;87385;-42
2024/03/06 05:13:55;;;;;;;;;;;8.00;82.40;;;;;;5014960;28;88028;-42
2024/03/06 05:16:23;;;;;;;;;;;8.00;82.40;;;;;;5003314;28;87562;-42
2024/03/06 05:18:48;;;;;;;;;;;7.90;82.40;;;;;;4996701;28;87408;-42
2024/03/06 05:21:14;;;;;;;;;;;7.90;82.50;;;;;;4998594;28;88428;-42
2024/03/06 05:23:39;;;;;;;;;;;7.90;82.60;;;;;;5008769;28;88076;-42
2024/03/06 05:26:05;;;;;;;;;;;7.90;82.40;;;;;;4996348;28;87818;-42
2024/03/06 05:28:30;;;;;;;;;;;7.90;82.40;;;;;;5004097;28;88548;-41
2024/03/06 05:30:56;;;;;;;;;;;7.90;82.50;;;;;;5004903;28;87108;-41
2024/03/06 05:33:22;;;;;;;;;;;7.90;82.40;;;;;;5009284;28;87069;-42
2024/03/06 05:35:47;;;;;;;;;;;7.80;82.40;;;;;;5009487;28;88516;-41
2024/03/06 05:38:13;;;;;;;;;;;7.80;82.50;;;;;;5000622;28;87048;-42
2024/03/06 05:40:40;;;;;;;;;;;7.80;82.50;;;;;;5000098;28;86888;-42
2024/03/06 05:43:05;;;;;;;;;;;7.80;82.50;;;;;;5006623;28;87243;-42
2024/03/06 05:45:31;;;;;;;;;;;7.80;82.60;;;;;;5010574;28;87343;-42
2024/03/06 05:47:57;;;;;;;;;;;7.80;82.50;;;;;;4998050;28;87904;-42
2024/03/06 05:50:23;;;;;;;;;;;7.80;82.40;;;;;;4998516;28;87077;-42
2024/03/06 05:52:49;;;;;;;;;;;7.80;82.40;;;;;;5008147;28;88036;-42
2024/03/06 05:55:14;;;;;;;;;;;7.80;82.40;;;;;;5012645;28;87039;-42
2024/03/06 05:57:45;;;;;;;;;;;7.80;82.50;;;;;;5000635;28;87707;-42
2024/03/06 06:00:11;;;;;;;;;;;7.80;82.50;;;;;;5001795;28;88049;-41
2024/03/06 06:02:37;;;;;;;;;;;7.80;82.50;;;;;;5006376;28;87046;-42
2024/03/06 06:05:04;;;;;;;;;;;7.80;82.40;;;;;;5011796;28;86711;-42
2024/03/06 06:07:29;;;;;;;;;;;7.80;82.40;;;;;;5005186;28;87252;-41
2024/03/06 06:09:55;;;;;;;;;;;7.70;82.50;;;;;;4993048;28;88739;-42
2024/03/06 06:12:20;;;;;;;;;;;7.70;82.60;;;;;;5001640;28;88291;-41
2024/03/06 06:14:46;;;;;;;;;;;7.70;82.50;;;;;;5007750;28;87786;-42
2024/03/06 06:17:13;;;;;;;;;;;7.70;82.50;;;;;;5003715;28;87002;-42
2024/03/06 06:19:41;;;;;;;;;;;7.70;82.50;;;;;;5003152;28;87100;-41
2024/03/06 06:22:07;;;;;;;;;;;7.70;82.40;;;;;;4997467;28;87425;-42
2024/03/06 06:24:32;;;;;;;;;;;7.70;82.50;;;;;;5001796;28;88548;-41
2024/03/06 06:26:58;;;;;;;;;;;7.70;82.40;;;;;;5002055;28;87378;-42
2024/03/06 06:29:23;;;;;;;;;;;7.70;82.40;;;;;;5012165;28;86358;-42
2024/03/06 06:31:49;;;;;;;;;;;7.70;82.40;;;;;;5003291;28;87028;-43
2024/03/06 06:34:14;;;;;;;;;;;7.70;82.40;;;;;;5003241;28;87489;-43
2024/03/06 06:36:44;;;;;;;;;;;7.70;82.50;;;;;;5001694;28;88231;-41
2024/03/06 06:39:11;;;;;;;;;;;7.60;82.60;;;;;;4998159;28;87878;-41
2024/03/06 06:41:37;;;;;;;;;;;7.70;82.70;;;;;;5001045;28;87054;-41
2024/03/06 06:44:03;;;;;;;;;;;7.70;82.60;;;;;;4999741;28;87313;-41
2024/03/06 06:46:29;;;;;;;;;;;7.70;82.40;;;;;;5002776;28;87498;-41
2024/03/06 06:48:54;;;;;;;;;;;7.70;82.40;;;;;;5005666;28;87042;-42
2024/03/06 06:51:20;;;;;;;;;;;7.70;82.40;;;;;;5008920;28;87078;-41
2024/03/06 06:53:46;;;;;;;;;;;7.70;82.40;;;;;;4994191;28;88090;-41
2024/03/06 06:56:11;;;;;;;;;;;7.70;82.50;;;;;;4995977;28;87566;-42
2024/03/06 06:58:37;;;;;;;;;;;7.70;82.40;;;;;;5004281;28;87697;-42
2024/03/06 07:01:03;;;;;;;;;;;7.70;82.40;;;;;;5013476;28;88299;-42
2024/03/06 07:03:29;;;;;;;;;;;7.70;82.50;;;;;;5000025;28;87520;-42
2024/03/06 07:05:56;;;;;;;;;;;7.60;82.50;;;;;;4999778;28;87744;-41
2024/03/06 07:08:22;;;;;;;;;;;7.70;82.50;;;;;;5005016;28;87375;-42
2024/03/06 07:10:48;;;;;;;;;;;7.70;82.50;;;;;;5007481;28;87927;-42
2024/03/06 07:13:13;;;;;;;;;;;7.70;82.40;;;;;;4999026;28;87539;-42
2024/03/06 07:15:39;;;;;;;;;;;7.70;82.40;;;;;;4995824;28;87073;-41
2024/03/06 07:18:05;;;;;;;;;;;7.70;82.30;;;;;;5004459;28;86551;-42
2024/03/06 07:20:31;;;;;;;;;;;7.70;82.50;;;;;;5009575;28;88984;-41
2024/03/06 07:22:57;;;;;;;;;;;7.70;82.50;;;;;;5002287;28;87027;-42
2024/03/06 07:25:23;;;;;;;;;;;7.60;82.50;;;;;;4999125;28;88099;-43
2024/03/06 07:27:48;;;;;;;;;;;7.60;82.60;;;;;;4997600;28;86914;-42
2024/03/06 07:30:14;;;;;;;;;;;7.60;82.80;;;;;;5008529;28;87486;-42
2024/03/06 07:32:40;;;;;;;;;;;7.60;82.70;;;;;;5002281;28;87897;-42
2024/03/06 07:35:06;;;;;;;;;;;7.60;83.10;;;;;;4995592;28;87287;-41
2024/03/06 07:37:33;;;;;;;;;;;7.60;82.90;;;;;;4996743;28;88191;-42
2024/03/06 07:39:59;;;;;;;;;;;7.60;82.80;;;;;;5005761;28;88462;-41
2024/03/06 07:42:25;;;;;;;;;;;7.60;82.80;;;;;;5002833;28;86290;-41
2024/03/06 07:44:51;;;;;;;;;;;7.60;82.90;;;;;;5003846;28;87577;-42
2024/03/06 07:47:16;;;;;;;;;;;7.60;83.00;;;;;;4999618;28;87582;-42
2024/03/06 07:49:44;;;;;;;;;;;7.60;83.00;;;;;;4998720;28;88172;-42
2024/03/06 07:52:10;;;;;;;;;;;7.60;83.00;;;;;;4995120;28;88600;-41
2024/03/06 07:54:36;;;;;;;;;;;7.50;83.00;;;;;;5009295;28;87105;-42
2024/03/06 07:57:01;;;;;;;;;;;7.60;83.10;;;;;;5000473;28;86993;-41
2024/03/06 07:59:27;;;;;;;;;;;7.60;83.10;;;;;;4995686;28;88656;-41
2024/03/06 08:01:52;;;;;;;;;;;7.50;83.10;;;;;;4997854;28;87031;-42
2024/03/06 08:04:18;;;;;;;;;;;7.60;83.20;;;;;;5008417;28;88662;-42
2024/03/06 08:06:43;;;;;;;;;;;7.60;83.20;;;;;;5011529;28;86868;-43
2024/03/06 08:09:09;;;;;;;;;;;7.50;83.30;;;;;;5003829;28;88199;-42
2024/03/06 08:11:35;;;;;;;;;;;7.50;83.10;;;;;;4994887;28;88242;-41
2024/03/06 08:14:01;;;;;;;;;;;7.50;83.20;;;;;;4998535;28;89594;-42
2024/03/06 08:16:28;;;;;;;;;;;7.50;83.30;;;;;;5010914;28;87866;-42
2024/03/06 08:18:55;;;;;;;;;;;7.50;83.20;;;;;;4991669;28;87753;-45
2024/03/06 08:21:20;;;;;;;;;;;7.50;83.30;;;;;;4995012;28;87136;-41
2024/03/06 08:23:47;;;;;;;;;;;7.50;83.30;;;;;;5001628;28;87383;-43
2024/03/06 08:26:13;;;;;;;;;;;7.50;83.30;;;;;;5011427;28;88569;-42
2024/03/06 08:28:38;;;;;;;;;;;7.50;83.30;;;;;;5006636;28;87069;-41
2024/03/06 08:31:04;;;;;;;;;;;7.50;83.40;;;;;;4998111;28;87920;-41
2024/03/06 08:33:29;;;;;;;;;;;7.50;83.40;;;;;;5003841;28;87240;-42
2024/03/06 08:35:55;;;;;;;;;;;7.50;83.50;;;;;;5013449;28;86918;-42
2024/03/06 08:38:20;;;;;;;;;;;7.50;83.60;;;;;;5003698;28;89179;-42
2024/03/06 08:40:46;;;;;;;;;;;7.50;83.50;;;;;;4997605;28;87130;-42
2024/03/06 08:43:12;;;;;;;;;;;7.50;83.50;;;;;;4999378;28;88539;-41
2024/03/06 08:45:38;;;;;;;;;;;7.60;83.60;;;;;;5004987;28;88652;-43
2024/03/06 08:48:05;;;;;;;;;;;7.50;83.70;;;;;;4991852;28;86981;-42
2024/03/06 08:50:31;;;;;;;;;;;7.50;83.80;;;;;;4989760;28;87837;-42
2024/03/06 08:52:56;;;;;;;;;;;7.60;83.90;;;;;;5003930;28;87706;-41
2024/03/06 08:55:22;;;;;;;;;;;7.50;84.00;;;;;;5002223;28;86927;-43
2024/03/06 08:57:47;;;;;;;;;;;7.50;83.70;;;;;;5000916;28;88018;-42
2024/03/06 09:00:14;;;;;;;;;;;7.50;84.00;;;;;;5001890;28;87132;-42
2024/03/06 09:02:40;;;;;;;;;;;7.50;83.80;;;;;;4995467;28;87959;-42
2024/03/06 09:05:06;;;;;;;;;;;7.50;83.90;;;;;;5005044;28;88158;-42
2024/03/06 09:07:36;;;;;;;;;;;7.50;83.90;;;;;;5000779;28;87324;-42
2024/03/06 09:10:03;;;;;;;;;;;7.60;84.10;;;;;;5009917;28;87903;-42
2024/03/06 09:12:28;;;;;;;;;;;7.60;84.10;;;;;;4995412;28;88495;-41
2024/03/06 09:14:54;;;;;;;;;;;7.50;84.20;;;;;;4999951;28;86985;-41
2024/03/06 09:17:20;;;;;;;;;;;7.50;84.10;;;;;;4996557;28;88287;-42
2024/03/06 09:19:45;;;;;;;;;;;7.50;84.30;;;;;;5007598;28;86719;-42
2024/03/06 09:22:11;;;;;;;;;;;7.50;84.30;;;;;;5006570;28;87398;-42
2024/03/06 09:24:38;;;;;;;;;;;7.60;84.40;;;;;;5001502;28;88289;-41
2024/03/06 09:27:03;;;;;;;;;;;7.60;84.50;;;;;;4994893;28;88072;-42
2024/03/06 09:29:29;;;;;;;;;;;7.60;84.50;;;;;;4997533;28;87653;-42
2024/03/06 09:31:54;;;;;;;;;;;7.60;84.60;;;;;;5013210;28;89055;-42
2024/03/06 09:34:21;;;;;;;;;;;7.60;84.80;;;;;;4992814;28;87691;-42
2024/03/06 09:36:48;;;;;;;;;;;7.60;84.90;;;;;;4992396;28;88498;-42
2024/03/06 09:39:17;;;;;;;;;;;7.60;84.90;;;;;;4997068;28;87618;-42
2024/03/06 09:41:46;;;;;;;;;;;7.60;84.90;;;;;;5013850;28;86898;-42
2024/03/06 09:44:13;;;;;;;;;;;7.70;85.00;;;;;;5003022;28;86572;-42
2024/03/06 09:46:42;;;;;;;;;;;7.70;85.00;;;;;;4996508;28;87042;-42
2024/03/06 09:49:09;;;;;;;;;;;7.70;85.00;;;;;;4999490;28;87005;-42
2024/03/06 09:51:35;;;;;;;;;;;7.70;85.00;;;;;;5008725;28;89603;-42
2024/03/06 09:54:02;;;;;;;;;;;7.70;85.10;;;;;;5003863;28;87669;-43
2024/03/06 09:56:28;;;;;;;;;;;7.70;85.00;;;;;;4998910;28;86961;-43
2024/03/06 09:58:53;;;;;;;;;;;7.70;85.00;;;;;;5003299;28;87524;-42
2024/03/06 10:01:20;;;;;;;;;;;7.70;85.30;;;;;;5005150;28;87800;-42
2024/03/06 10:03:46;;;;;;;;;;;7.70;85.20;;;;;;5006562;28;87566;-42
2024/03/06 10:06:11;;;;;;;;;;;7.70;85.30;;;;;;4993917;28;87605;-42
2024/03/06 10:08:41;;;;;;;;;;;7.70;85.30;;;;;;4997634;28;86816;-43
2024/03/06 10:11:07;;;;;;;;;;;7.80;85.30;;;;;;5005071;28;87815;-42
2024/03/06 10:13:33;;;;;;;;;;;7.80;85.30;;;;;;5008671;28;87063;-43
2024/03/06 10:16:03;;;;;;;;;;;7.80;85.40;;;;;;5002280;28;87890;-42
2024/03/06 10:18:30;;;;;;;;;;;7.80;85.30;;;;;;5000410;28;90412;-42
2024/03/06 10:20:56;;;;;;;;;;;7.80;85.60;;;;;;5003457;28;87990;-42
2024/03/06 10:23:21;;;;;;;;;;;7.80;85.40;;;;;;4998929;28;87784;-42
2024/03/06 10:25:52;;;;;;;;;;;7.90;85.50;;;;;;5005258;28;87610;-43
2024/03/06 10:28:18;;;;;;;;;;;7.80;85.50;;;;;;5002797;28;87024;-42
2024/03/06 10:30:45;;;;;;;;;;;7.90;85.50;;;;;;5000903;28;87682;-42
2024/03/06 10:33:14;;;;;;;;;;;7.90;85.60;;;;;;5001016;28;86337;-42
2024/03/06 10:35:41;;;;;;;;;;;7.90;85.50;;;;;;5000979;28;87115;-43
2024/03/06 10:38:07;;;;;;;;;;;7.90;85.70;;;;;;5003078;28;87695;-42
2024/03/06 10:40:34;;;;;;;;;;;7.90;85.70;;;;;;4996141;28;89337;-42
2024/03/06 10:43:01;;;;;;;;;;;8.00;85.90;;;;;;5004157;28;87428;-42
2024/03/06 10:45:49;;;;;;;;;;;7.90;85.90;;;;;;5003606;28;87595;-43
2024/03/06 10:48:16;;;;;;;;;;;8.00;86.00;;;;;;4991014;28;88137;-44
2024/03/06 10:50:45;;;;;;;;;;;8.00;85.90;;;;;;4995815;28;87456;-42
2024/03/06 10:53:17;;;;;;;;;;;8.00;86.00;;;;;;4998571;28;87774;-43
2024/03/06 10:55:44;;;;;;;;;;;8.00;86.20;;;;;;5000947;28;87666;-43
2024/03/06 10:58:10;;;;;;;;;;;8.00;86.40;;;;;;5014529;28;87774;-43
2024/03/06 11:00:41;;;;;;;;;;;8.00;86.30;;;;;;4994553;28;87663;-42
2024/03/06 11:03:08;;;;;;;;;;;8.00;86.40;;;;;;4994583;28;87373;-42
2024/03/06 11:05:40;;;;;;;;;;;8.00;86.40;;;;;;4997680;28;88237;-42
2024/03/06 11:08:10;;;;;;;;;;;8.00;86.50;;;;;;5008934;28;87668;-42
2024/03/06 11:10:40;;;;;;;;;;;8.00;86.50;;;;;;4999779;28;87481;-42
2024/03/06 11:13:21;;;;;;;;;;;8.10;86.40;;;;;;4995852;28;87178;-43
2024/03/06 11:15:47;;;;;;;;;;;8.10;86.30;;;;;;5004205;28;89012;-43
2024/03/06 11:18:32;;;;;;;;;;;8.10;86.20;;;;;;5009744;28;87425;-43
2024/03/06 11:21:01;;;;;;;;;;;8.10;86.40;;;;;;4995052;28;87162;-43
2024/03/06 11:23:27;;;;;;;;;;;8.20;86.50;;;;;;5002530;28;86323;-42
2024/03/06 11:25:55;;;;;;;;;;;8.20;86.40;;;;;;4999519;28;86943;-43
2024/03/06 11:28:27;;;;;;;;;;;8.20;86.50;;;;;;5004790;28;87823;-42
2024/03/06 11:31:06;;;;;;;;;;;8.20;86.50;;;;;;5001777;28;89649;-44
2024/03/06 11:33:38;;;;;;;;;;;8.20;86.40;;;;;;4997139;28;87975;-42
2024/03/06 11:36:17;;;;;;;;;;;8.20;86.40;;;;;;5002215;28;87032;-43
2024/03/06 11:39:01;;;;;;;;;;;8.30;86.40;;;;;;5006290;28;88946;-43
2024/03/06 11:41:28;;;;;;;;;;;8.30;86.40;;;;;;5006686;28;86978;-42
2024/03/06 11:43:55;;;;;;;;;;;8.30;86.50;;;;;;4991727;28;87035;-44
2024/03/06 11:46:21;;;;;;;;;;;8.30;86.40;;;;;;5002068;28;87532;-44
2024/03/06 11:48:54;;;;;;;;;;;8.30;86.30;;;;;;5005186;28;86726;-44
2024/03/06 11:51:20;;;;;;;;;;;8.40;86.40;;;;;;5004218;28;88495;-45
2024/03/06 11:53:48;;;;;;;;;;;8.40;86.30;;;;;;5000327;28;87024;-44
2024/03/06 11:56:14;;;;;;;;;;;8.40;86.30;;;;;;4998131;28;87939;-43
2024/03/06 11:58:39;;;;;;;;;;;8.40;86.30;;;;;;5004510;28;87281;-44
2024/03/06 12:01:06;;;;;;;;;;;8.40;86.20;;;;;;5002215;28;88775;-44
2024/03/06 12:03:31;;;;;;;;;;;8.50;86.20;;;;;;4998589;28;87811;-44
2024/03/06 12:05:57;;;;;;;;;;;8.50;86.20;;;;;;4994789;28;87624;-44
2024/03/06 12:08:23;;;;;;;;;;;8.50;86.00;;;;;;5005028;28;87059;-44
2024/03/06 12:10:49;;;;;;;;;;;8.50;86.10;;;;;;4996159;28;88501;-43
2024/03/06 12:13:15;;;;;;;;;;;8.50;86.00;;;;;;5004043;28;86227;-43
2024/03/06 12:15:44;;;;;;;;;;;8.50;86.00;;;;;;4998554;28;87366;-43
2024/03/06 12:18:10;;;;;;;;;;;8.50;86.00;;;;;;4997626;28;87851;-43
2024/03/06 12:20:40;;;;;;;;;;;8.60;86.00;;;;;;4999431;28;88825;-42
2024/03/06 12:23:06;;;;;;;;;;;8.60;86.00;;;;;;5006960;28;89043;-43
2024/03/06 12:25:31;;;;;;;;;;;8.60;85.90;;;;;;5005750;28;90455;-43
2024/03/06 12:28:06;;;;;;;;;;;8.60;85.90;;;;;;5000082;28;87332;-43
2024/03/06 12:30:39;;;;;;;;;;;8.60;86.10;;;;;;5002058;28;88899;-43
2024/03/06 12:33:05;;;;;;;;;;;8.60;86.10;;;;;;5001257;28;87185;-44
2024/03/06 12:35:31;;;;;;;;;;;8.70;86.10;;;;;;5005574;28;87740;-43
2024/03/06 12:37:57;;;;;;;;;;;8.70;86.20;;;;;;4996554;28;86858;-43
2024/03/06 12:40:23;;;;;;;;;;;8.70;86.20;;;;;;4997390;28;88039;-43
2024/03/06 12:42:50;;;;;;;;;;;8.70;86.10;;;;;;5005337;28;87597;-43
2024/03/06 12:45:16;;;;;;;;;;;8.70;86.10;;;;;;5007049;28;89796;-43
2024/03/06 12:47:42;;;;;;;;;;;8.80;86.10;;;;;;4993803;28;86981;-44
2024/03/06 12:50:08;;;;;;;;;;;8.70;86.10;;;;;;4993786;28;88506;-43
2024/03/06 12:52:34;;;;;;;;;;;8.80;86.10;;;;;;5006208;28;88404;-44
2024/03/06 12:55:00;;;;;;;;;;;8.80;86.20;;;;;;5001814;28;87922;-43
2024/03/06 12:57:25;;;;;;;;;;;8.80;86.20;;;;;;5000568;28;87605;-43
2024/03/06 12:59:51;;;;;;;;;;;8.80;86.30;;;;;;4999079;28;87822;-42
2024/03/06 13:02:16;;;;;;;;;;;8.80;86.20;;;;;;5002059;28;87856;-43
2024/03/06 13:04:42;;;;;;;;;;;8.80;86.20;;;;;;5003841;28;88501;-43
2024/03/06 13:07:08;;;;;;;;;;;8.80;86.20;;;;;;5005057;28;87445;-43
2024/03/06 13:09:33;;;;;;;;;;;8.80;85.80;;;;;;4993550;28;88063;-43
2024/03/06 13:11:59;;;;;;;;;;;8.80;85.90;;;;;;5010258;28;87487;-43
2024/03/06 13:14:24;;;;;;;;;;;8.90;86.10;;;;;;5018804;28;87175;-43
2024/03/06 13:16:50;;;;;;;;;;;8.90;85.70;;;;;;4997844;28;87671;-43
2024/03/06 13:19:15;;;;;;;;;;;8.90;85.70;;;;;;5006616;28;87026;-43
2024/03/06 13:21:41;;;;;;;;;;;8.90;86.00;;;;;;5011667;28;87027;-44
2024/03/06 13:24:07;;;;;;;;;;;8.90;85.50;;;;;;5013623;28;86961;-43
2024/03/06 13:26:32;;;;;;;;;;;9.00;85.60;;;;;;4997920;28;87058;-43
2024/03/06 13:28:59;;;;;;;;;;;9.00;85.60;;;;;;5002296;28;87670;-43
2024/03/06 13:31:25;;;;;;;;;;;9.00;85.50;;;;;;5006373;28;88490;-43
2024/03/06 13:33:50;;;;;;;;;;;9.00;85.30;;;;;;5006456;28;87983;-43
2024/03/06 13:36:16;;;;;;;;;;;9.00;85.30;;;;;;4999024;28;87371;-44
2024/03/06 13:38:41;;;;;;;;;;;9.00;85.30;;;;;;4999420;28;87361;-44
2024/03/06 13:41:07;;;;;;;;;;;9.00;85.50;;;;;;5002283;28;87887;-45
2024/03/06 13:43:32;;;;;;;;;;;9.00;85.70;;;;;;5011471;28;87673;-45
2024/03/06 13:45:58;;;;;;;;;;;9.00;85.50;;;;;;5006326;28;88826;-44
2024/03/06 13:48:23;;;;;;;;;;;9.00;85.60;;;;;;4999390;28;87648;-44
2024/03/06 13:50:49;;;;;;;;;;;9.00;85.90;;;;;;5008114;28;87633;-45
2024/03/06 13:53:15;;;;;;;;;;;9.10;85.90;;;;;;5015073;28;87433;-44
2024/03/06 13:55:41;;;;;;;;;;;9.00;85.80;;;;;;5008069;28;87902;-44
2024/03/06 13:58:07;;;;;;;;;;;9.10;86.00;;;;;;5001395;28;87961;-44
2024/03/06 14:00:34;;;;;;;;;;;9.10;85.90;;;;;;5001756;28;88481;-44
2024/03/06 14:03:00;;;;;;;;;;;9.10;85.90;;;;;;5006680;28;88577;-43
2024/03/06 14:05:26;;;;;;;;;;;9.10;85.50;;;;;;5005511;28;87645;-44
2024/03/06 14:07:51;;;;;;;;;;;9.10;85.80;;;;;;5003444;28;87805;-43
2024/03/06 14:10:19;;;;;;;;;;;9.10;85.70;;;;;;4996673;28;87299;-44
2024/03/06 14:12:44;;;;;;;;;;;9.10;85.70;;;;;;5002166;28;87075;-43
2024/03/06 14:15:15;;;;;;;;;;;9.10;85.80;;;;;;5004533;28;87829;-44
2024/03/06 14:17:41;;;;;;;;;;;9.20;85.90;;;;;;5013498;28;88651;-44
2024/03/06 14:20:07;;;;;;;;;;;9.20;86.00;;;;;;5001458;28;86851;-44
2024/03/06 14:22:33;;;;;;;;;;;9.20;85.80;;;;;;5006194;28;89913;-45
2024/03/06 14:24:58;;;;;;;;;;;9.20;85.70;;;;;;5004538;28;87024;-44
2024/03/06 14:27:24;;;;;;;;;;;9.20;85.80;;;;;;5006307;28;87427;-44